Time;durP1;ratioP1;P1;durP2;ratioP2;P2;SDS_P1;SDS_P2;PMS_P1;PMS_P2;Temp;Humidity;BMP_temperature;BMP_pressure;BME280_temperature;BME280_humidity;BME280_pressure;Samples;Min_cycle;Max_cycle;Signal;HPM_P1;HPM_P2
2022/02/09 00:00:42;;;;;;;21.17;15.30;;;9.20;99.90;;;;;;5058527;28;20457;-71
2022/02/09 00:03:12;;;;;;;22.77;15.83;;;9.20;99.90;;;;;;5058617;28;20444;-71
2022/02/09 00:05:54;;;;;;;23.73;15.80;;;9.30;99.90;;;;;;5058262;28;20471;-70
2022/02/09 00:08:21;;;;;;;24.83;15.50;;;9.20;99.90;;;;;;5058254;28;20439;-71
2022/02/09 00:10:49;;;;;;;26.30;16.70;;;9.20;99.90;;;;;;5058144;28;20455;-70
2022/02/09 00:13:36;;;;;;;27.33;17.50;;;9.30;99.90;;;;;;5058005;28;20912;-70
2022/02/09 00:16:11;;;;;;;24.77;16.30;;;9.30;99.90;;;;;;5057949;28;20537;-70
2022/02/09 00:18:47;;;;;;;24.47;16.43;;;9.20;99.90;;;;;;5057916;28;20492;-70
2022/02/09 00:27:24;;;;;;;26.97;17.13;;;9.20;99.90;;;;;;5066854;28;20600;-70
2022/02/09 00:30:17;;;;;;;29.80;17.70;;;9.20;99.90;;;;;;5077584;28;20438;-70
2022/02/09 00:38:44;;;;;;;27.13;17.43;;;9.10;99.90;;;;;;5077686;28;20423;-70
2022/02/09 01:11:49;;;;;;;34.43;19.00;;;9.10;99.90;;;;;;5076961;28;20422;-70
2022/02/09 01:39:06;;;;;;;28.57;17.40;;;9.10;99.90;;;;;;5076589;28;20462;-70
2022/02/09 01:51:09;;;;;;;29.43;19.20;;;9.10;99.90;;;;;;5076488;28;20422;-70
2022/02/09 01:55:50;;;;;;;24.87;16.77;;;9.10;99.90;;;;;;5076267;28;20758;-71
2022/02/09 01:58:17;;;;;;;23.40;16.53;;;9.10;99.90;;;;;;5076218;28;20489;-71
2022/02/09 02:00:45;;;;;;;26.80;15.63;;;9.10;99.90;;;;;;5076187;28;20486;-71
2022/02/09 02:03:11;;;;;;;24.67;16.90;;;9.10;99.90;;;;;;5076125;28;20470;-71
2022/02/09 02:05:38;;;;;;;28.20;17.77;;;9.10;99.90;;;;;;5076032;28;20469;-71
2022/02/09 02:08:08;;;;;;;24.77;15.93;;;9.10;99.90;;;;;;5076146;28;20513;-71
2022/02/09 02:10:45;;;;;;;23.47;16.17;;;9.10;99.90;;;;;;5076038;28;20454;-71
2022/02/09 02:13:23;;;;;;;24.77;16.90;;;9.10;99.90;;;;;;5076283;28;20453;-71
2022/02/09 02:18:38;;;;;;;27.80;18.67;;;9.10;99.90;;;;;;5076420;28;20437;-71
2022/02/09 02:21:21;;;;;;;28.40;17.93;;;9.10;99.90;;;;;;5076676;28;20549;-71
2022/02/09 02:24:11;;;;;;;28.93;18.67;;;9.10;99.90;;;;;;5076326;28;20608;-71
2022/02/09 02:26:57;;;;;;;27.27;16.83;;;9.10;99.90;;;;;;5075572;28;20443;-71
2022/02/09 02:32:39;;;;;;;25.00;16.10;;;9.10;99.90;;;;;;5058320;28;20543;-71
2022/02/09 02:35:39;;;;;;;28.00;15.93;;;9.10;99.90;;;;;;5075759;28;20775;-72
2022/02/09 02:46:59;;;;;;;26.20;16.37;;;9.10;99.90;;;;;;5076247;28;20449;-71
2022/02/09 03:08:47;;;;;;;20.40;15.50;;;9.00;99.90;;;;;;5074740;28;20947;-70
2022/02/09 03:14:07;;;;;;;24.10;16.70;;;9.00;99.90;;;;;;5070621;28;20465;-72
2022/02/09 03:16:38;;;;;;;23.03;15.83;;;9.00;99.90;;;;;;5074407;28;20871;-72
2022/02/09 03:22:09;;;;;;;18.87;13.17;;;9.00;99.90;;;;;;5073300;28;20929;-70
2022/02/09 03:24:52;;;;;;;20.10;14.70;;;9.00;99.90;;;;;;5075023;28;20474;-70
2022/02/09 03:27:32;;;;;;;20.87;14.10;;;9.00;99.90;;;;;;5074797;28;20439;-71
2022/02/09 03:44:06;;;;;;;22.67;16.13;;;9.10;99.90;;;;;;5079286;28;20422;-71
2022/02/09 03:47:03;;;;;;;26.43;18.80;;;9.00;99.90;;;;;;5079392;28;20439;-70
2022/02/09 03:49:40;;;;;;;25.03;17.50;;;9.10;99.90;;;;;;5079424;28;20458;-71
2022/02/09 03:52:21;;;;;;;28.07;18.67;;;9.10;99.90;;;;;;5078438;28;20438;-70
2022/02/09 03:54:56;;;;;;;25.90;19.20;;;9.10;99.90;;;;;;5077082;28;20507;-71
2022/02/09 03:57:26;;;;;;;28.63;19.07;;;9.10;99.90;;;;;;5074952;28;20514;-71
2022/02/09 03:59:53;;;;;;;28.77;19.10;;;9.10;99.90;;;;;;5075299;28;20498;-72
2022/02/09 04:02:21;;;;;;;26.80;19.80;;;9.10;99.90;;;;;;5075812;28;20472;-71
2022/02/09 04:04:53;;;;;;;23.70;18.80;;;9.10;99.90;;;;;;5076300;28;20537;-71
2022/02/09 04:07:20;;;;;;;26.47;19.07;;;9.10;99.90;;;;;;5075130;28;20450;-71
2022/02/09 04:09:54;;;;;;;31.87;21.13;;;9.10;99.90;;;;;;5074552;28;20451;-70
2022/02/09 04:12:32;;;;;;;25.50;17.50;;;9.10;99.90;;;;;;5074661;28;20541;-70
2022/02/09 04:15:06;;;;;;;25.80;19.03;;;9.20;99.90;;;;;;5074474;28;20442;-70
2022/02/09 04:17:43;;;;;;;22.77;18.17;;;9.20;99.90;;;;;;5074585;28;20810;-70
2022/02/09 04:20:35;;;;;;;27.50;18.03;;;9.20;99.90;;;;;;5074713;28;20470;-70
2022/02/09 04:36:59;;;;;;;22.87;16.90;;;9.30;99.90;;;;;;5074477;28;20556;-71
2022/02/09 04:39:30;;;;;;;25.37;19.13;;;9.20;99.90;;;;;;5074614;28;20466;-71
2022/02/09 04:42:22;;;;;;;25.63;18.13;;;9.20;99.90;;;;;;5074488;28;20748;-71
2022/02/09 04:47:48;;;;;;;29.63;19.07;;;9.20;99.90;;;;;;5077072;28;20926;-71
2022/02/09 04:50:21;;;;;;;26.80;18.83;;;9.10;99.90;;;;;;5077716;28;20442;-71
2022/02/09 04:53:03;;;;;;;30.10;20.90;;;9.10;99.90;;;;;;5077767;28;20434;-72
2022/02/09 04:55:41;;;;;;;30.23;19.90;;;9.10;99.90;;;;;;5077794;28;20453;-70
2022/02/09 04:58:15;;;;;;;27.77;18.50;;;9.10;99.90;;;;;;5077688;28;20759;-71
2022/02/09 05:00:51;;;;;;;25.20;17.37;;;9.10;99.90;;;;;;5077579;28;20539;-71
2022/02/09 05:03:56;;;;;;;26.87;17.90;;;9.10;99.90;;;;;;5077678;28;20446;-71
2022/02/09 05:17:58;;;;;;;21.47;15.47;;;9.20;99.90;;;;;;5077263;28;20421;-71
2022/02/09 05:21:15;;;;;;;20.80;15.23;;;9.20;99.90;;;;;;5077148;28;20469;-70
2022/02/09 05:23:49;;;;;;;21.10;15.30;;;9.20;99.90;;;;;;5060325;28;20478;-68
2022/02/09 05:26:25;;;;;;;18.20;13.40;;;9.20;99.90;;;;;;5057197;28;20446;-71
2022/02/09 05:28:52;;;;;;;17.97;13.20;;;9.20;99.90;;;;;;5057599;28;20827;-71
2022/02/09 05:31:18;;;;;;;15.83;12.40;;;9.20;99.90;;;;;;5056579;28;20525;-70
2022/02/09 05:33:47;;;;;;;19.50;14.80;;;9.30;99.90;;;;;;5056696;28;20924;-69
2022/02/09 05:36:13;;;;;;;17.77;12.50;;;9.30;99.90;;;;;;5056875;28;20465;-70
2022/02/09 05:38:41;;;;;;;17.10;12.60;;;9.30;99.90;;;;;;5058417;28;20458;-71
2022/02/09 05:41:08;;;;;;;15.80;11.80;;;9.30;99.90;;;;;;5059315;28;20479;-70
2022/02/09 05:43:35;;;;;;;13.63;11.70;;;9.30;99.90;;;;;;5057683;28;20845;-69
2022/02/09 05:46:27;;;;;;;15.37;11.30;;;9.30;99.90;;;;;;5056765;28;20861;-70
2022/02/09 05:49:29;;;;;;;13.23;9.93;;;9.30;99.90;;;;;;5056421;28;20922;-70
2022/02/09 05:52:01;;;;;;;15.03;10.47;;;9.30;99.90;;;;;;5056667;28;20563;-70
2022/02/09 05:54:49;;;;;;;15.10;9.90;;;9.30;99.90;;;;;;5056143;28;20742;-70
2022/02/09 05:57:27;;;;;;;13.40;10.30;;;9.30;99.90;;;;;;5056585;28;20777;-70
2022/02/09 05:59:54;;;;;;;12.27;10.00;;;9.30;99.90;;;;;;5056407;28;20467;-70
2022/02/09 06:02:21;;;;;;;14.67;10.43;;;9.30;99.90;;;;;;5056493;28;20459;-70
2022/02/09 06:04:48;;;;;;;12.27;9.87;;;9.40;99.90;;;;;;5056338;28;20466;-70
2022/02/09 06:07:19;;;;;;;12.90;9.40;;;9.40;99.90;;;;;;5056297;28;20558;-69
2022/02/09 06:09:48;;;;;;;14.80;8.80;;;9.30;99.90;;;;;;5055979;28;20523;-70
2022/02/09 06:12:21;;;;;;;10.70;8.70;;;9.30;99.90;;;;;;5056418;28;20505;-70
2022/02/09 06:15:17;;;;;;;9.07;8.13;;;9.30;99.90;;;;;;5057005;28;20444;-70
2022/02/09 06:20:30;;;;;;;10.93;9.77;;;9.30;99.90;;;;;;5031764;28;21097;-70
2022/02/09 06:23:00;;;;;;;10.00;7.90;;;9.30;99.90;;;;;;5056758;28;20811;-68
2022/02/09 06:25:30;;;;;;;10.63;8.40;;;9.30;99.90;;;;;;5058633;28;20517;-69
2022/02/09 06:27:56;;;;;;;11.43;7.57;;;9.30;99.90;;;;;;5057326;28;20459;-69
2022/02/09 06:30:23;;;;;;;13.63;9.27;;;9.30;99.90;;;;;;5056915;28;20458;-70
2022/02/09 06:32:50;;;;;;;10.30;8.70;;;9.40;99.90;;;;;;5057099;28;20455;-70
2022/02/09 06:35:18;;;;;;;9.70;8.40;;;9.40;99.90;;;;;;5056111;28;20805;-70
2022/02/09 06:37:47;;;;;;;11.10;8.80;;;9.40;99.90;;;;;;5055997;28;20478;-70
2022/02/09 06:40:16;;;;;;;12.17;8.23;;;9.40;99.90;;;;;;5055228;28;20537;-70
2022/02/09 06:42:44;;;;;;;10.67;8.23;;;9.40;99.90;;;;;;5056172;28;20459;-70
2022/02/09 06:45:17;;;;;;;10.37;8.97;;;9.50;99.90;;;;;;5055509;28;20546;-70
2022/02/09 06:47:44;;;;;;;12.07;7.80;;;9.50;99.90;;;;;;5055580;28;20479;-70
2022/02/09 06:50:17;;;;;;;13.83;9.30;;;9.50;99.90;;;;;;5055038;28;20926;-70
2022/02/09 06:52:48;;;;;;;9.80;7.80;;;9.50;99.90;;;;;;5055173;28;20473;-69
2022/02/09 06:55:17;;;;;;;12.40;7.70;;;9.50;99.90;;;;;;5055895;28;20815;-70
2022/02/09 06:57:59;;;;;;;9.63;8.00;;;9.50;99.90;;;;;;5055084;28;21007;-70
2022/02/09 07:00:29;;;;;;;8.80;7.60;;;9.50;99.90;;;;;;5055131;28;20471;-71
2022/02/09 07:02:56;;;;;;;8.97;7.63;;;9.50;99.90;;;;;;5054870;28;20498;-71
2022/02/09 07:05:23;;;;;;;8.80;6.77;;;9.50;99.90;;;;;;5055017;28;20456;-70
2022/02/09 07:07:50;;;;;;;10.03;7.07;;;9.50;99.90;;;;;;5055343;28;20459;-70
2022/02/09 07:10:16;;;;;;;9.17;7.33;;;9.50;99.90;;;;;;5054986;28;20455;-70
2022/02/09 07:12:45;;;;;;;9.87;6.93;;;9.60;99.90;;;;;;5055253;28;20466;-70
2022/02/09 07:15:15;;;;;;;11.83;7.00;;;9.60;99.90;;;;;;5055167;28;20486;-70
2022/02/09 07:17:43;;;;;;;9.87;7.53;;;9.60;99.90;;;;;;5055034;28;20542;-70
2022/02/09 07:20:17;;;;;;;11.10;7.67;;;9.60;99.90;;;;;;5054508;28;20971;-70
2022/02/09 07:22:44;;;;;;;10.43;7.93;;;9.70;99.90;;;;;;5054706;28;20500;-69
2022/02/09 07:25:14;;;;;;;8.40;7.07;;;9.70;99.90;;;;;;5054728;28;20844;-70
2022/02/09 07:27:49;;;;;;;10.57;7.50;;;9.70;99.90;;;;;;5055564;28;20652;-71
2022/02/09 07:30:20;;;;;;;11.53;7.10;;;9.70;99.90;;;;;;5054703;28;20439;-71
2022/02/09 07:32:47;;;;;;;9.20;7.10;;;9.70;99.90;;;;;;5054528;28;20466;-71
2022/02/09 07:35:14;;;;;;;7.60;6.80;;;9.70;99.90;;;;;;5054726;28;20494;-71
2022/02/09 07:37:41;;;;;;;9.60;7.37;;;9.70;99.90;;;;;;5054723;28;20765;-71
2022/02/09 07:40:11;;;;;;;9.13;6.70;;;9.80;99.90;;;;;;5054676;28;20491;-71
2022/02/09 07:42:43;;;;;;;8.60;6.90;;;9.80;99.90;;;;;;5054573;28;20469;-71
2022/02/09 07:45:29;;;;;;;9.17;7.17;;;9.80;99.90;;;;;;5054574;28;20546;-71
2022/02/09 07:48:13;;;;;;;10.37;7.30;;;9.90;99.90;;;;;;5054670;28;20453;-71
2022/02/09 07:50:42;;;;;;;9.20;6.77;;;9.90;99.90;;;;;;5054596;28;20450;-71
2022/02/09 07:53:12;;;;;;;6.83;6.13;;;9.90;99.90;;;;;;5054541;28;20554;-71
2022/02/09 07:55:40;;;;;;;8.77;6.80;;;9.90;99.90;;;;;;5055172;28;20455;-70
2022/02/09 07:58:07;;;;;;;7.93;6.87;;;9.90;99.90;;;;;;5055569;28;20986;-70
2022/02/09 08:00:34;;;;;;;11.33;6.20;;;9.90;99.90;;;;;;5056461;28;20578;-70
2022/02/09 08:03:04;;;;;;;9.00;6.50;;;9.90;99.90;;;;;;5055853;28;20459;-70
2022/02/09 08:05:31;;;;;;;6.03;5.43;;;9.90;99.90;;;;;;5055222;28;20554;-70
2022/02/09 08:07:58;;;;;;;7.60;5.87;;;10.00;99.90;;;;;;5055033;28;20455;-70
2022/02/09 08:10:29;;;;;;;7.90;5.80;;;10.00;99.90;;;;;;5054842;28;20454;-70
2022/02/09 08:26:56;;;;;;;4.87;4.47;;;10.00;99.90;;;;;;5020766;28;20910;-70
2022/02/09 08:29:28;;;;;;;5.50;4.70;;;10.10;99.90;;;;;;5078578;28;20503;-70
2022/02/09 08:34:40;;;;;;;4.17;3.77;;;10.10;99.90;;;;;;5078174;28;20484;-70
2022/02/09 08:37:08;;;;;;;5.40;3.97;;;10.10;99.90;;;;;;5077962;28;20512;-70
2022/02/09 08:39:36;;;;;;;5.30;3.87;;;10.10;99.90;;;;;;5078102;28;20784;-70
2022/02/09 08:42:03;;;;;;;5.43;4.13;;;10.10;99.90;;;;;;5077481;28;20954;-69
2022/02/09 08:44:29;;;;;;;4.80;4.30;;;10.10;99.90;;;;;;5077907;28;20454;-70
2022/02/09 08:46:56;;;;;;;4.53;4.10;;;10.10;99.90;;;;;;5078165;28;20714;-70
2022/02/09 08:49:26;;;;;;;5.40;4.37;;;10.10;99.90;;;;;;5077468;28;20930;-71
2022/02/09 08:51:55;;;;;;;4.30;3.60;;;10.10;99.90;;;;;;5078125;28;20519;-70
2022/02/09 08:54:22;;;;;;;3.83;3.53;;;10.10;99.90;;;;;;5078060;28;20458;-70
2022/02/09 08:56:48;;;;;;;6.70;3.97;;;10.10;99.90;;;;;;5079397;28;20465;-70
2022/02/09 08:59:17;;;;;;;3.63;3.33;;;10.10;99.90;;;;;;5079420;28;20940;-70
2022/02/09 09:01:48;;;;;;;3.43;3.10;;;10.10;99.90;;;;;;5077793;28;20478;-70
2022/02/09 09:04:20;;;;;;;6.97;3.83;;;10.10;99.90;;;;;;5077691;28;20496;-70
2022/02/09 09:06:53;;;;;;;5.77;3.40;;;10.10;99.90;;;;;;5077776;28;20765;-70
2022/02/09 09:09:30;;;;;;;3.77;3.43;;;10.10;99.90;;;;;;5077491;28;20442;-70
2022/02/09 10:02:06;;;;;;;4.13;3.57;;;10.60;99.90;;;;;;5023536;28;20483;-70
2022/02/09 10:04:54;;;;;;;5.30;3.83;;;10.60;99.90;;;;;;5056386;28;20447;-70
2022/02/09 10:33:06;;;;;;;4.23;3.70;;;10.40;99.90;;;;;;5055851;28;20431;-70
2022/02/09 10:35:37;;;;;;;4.17;3.70;;;10.50;99.90;;;;;;5055507;28;20884;-69
2022/02/09 10:38:22;;;;;;;11.93;4.80;;;10.50;99.90;;;;;;5055774;28;20435;-70
2022/02/09 10:40:52;;;;;;;4.03;3.60;;;10.60;99.90;;;;;;5054441;28;20499;-70
2022/02/09 10:43:26;;;;;;;3.97;3.57;;;10.60;99.90;;;;;;5056356;28;20546;-71
2022/02/09 10:46:07;;;;;;;3.63;3.33;;;10.60;99.90;;;;;;5055561;28;20774;-70
2022/02/09 10:48:43;;;;;;;5.43;4.10;;;10.60;99.90;;;;;;5055615;28;20450;-70
2022/02/09 10:51:25;;;;;;;3.80;3.50;;;10.60;99.90;;;;;;5055336;28;20779;-70
2022/02/09 10:54:09;;;;;;;4.53;3.40;;;10.60;99.90;;;;;;5055303;28;20475;-70
2022/02/09 10:56:37;;;;;;;5.93;3.43;;;10.50;99.90;;;;;;5055347;28;20790;-70
2022/02/09 10:59:07;;;;;;;6.10;3.23;;;10.50;99.90;;;;;;5055178;28;20459;-70
2022/02/09 11:01:35;;;;;;;3.87;3.57;;;10.50;99.90;;;;;;5054847;28;20541;-70
2022/02/09 11:04:04;;;;;;;6.07;3.80;;;10.50;99.90;;;;;;5055222;28;20769;-70
2022/02/09 11:06:33;;;;;;;3.93;3.50;;;10.40;99.90;;;;;;5055014;28;20459;-70
2022/02/09 11:09:01;;;;;;;3.70;3.30;;;10.50;99.90;;;;;;5054754;28;20970;-71
2022/02/09 11:11:29;;;;;;;6.37;3.30;;;10.40;99.90;;;;;;5054974;28;20451;-70
2022/02/09 11:13:56;;;;;;;7.07;3.40;;;10.40;99.90;;;;;;5054706;28;20538;-71
2022/02/09 11:16:24;;;;;;;3.50;3.20;;;10.50;99.90;;;;;;5055043;28;20837;-70
2022/02/09 11:18:54;;;;;;;3.40;3.00;;;10.50;99.90;;;;;;5054914;28;20734;-71
2022/02/09 11:21:29;;;;;;;3.40;3.10;;;10.50;99.90;;;;;;5054763;28;20811;-70
2022/02/09 11:23:58;;;;;;;6.97;2.90;;;10.60;99.90;;;;;;5054421;28;20845;-71
2022/02/09 11:26:31;;;;;;;4.13;2.57;;;10.60;99.90;;;;;;5054788;28;20860;-71
2022/02/09 11:29:47;;;;;;;2.70;2.50;;;10.70;99.90;;;;;;5055371;28;20986;-68
2022/02/09 11:32:41;;;;;;;7.20;2.67;;;10.70;99.90;;;;;;5055229;28;20719;-68
2022/02/09 11:35:25;;;;;;;2.90;2.33;;;10.70;99.90;;;;;;5054238;28;20451;-68
2022/02/09 11:38:09;;;;;;;5.17;2.80;;;10.70;99.90;;;;;;5054700;28;20479;-67
2022/02/09 11:40:42;;;;;;;3.33;2.07;;;10.70;99.90;;;;;;5054518;28;20443;-68
2022/02/09 11:43:39;;;;;;;5.30;2.63;;;10.70;99.90;;;;;;5054760;28;20431;-68
2022/02/09 11:46:24;;;;;;;6.07;2.77;;;10.70;99.90;;;;;;5054777;28;20896;-68
2022/02/09 11:52:01;;;;;;;2.73;2.40;;;10.70;99.90;;;;;;5041087;28;20458;-69
2022/02/09 11:54:48;;;;;;;4.13;2.43;;;10.70;99.90;;;;;;5054809;28;20455;-69
2022/02/09 11:57:35;;;;;;;3.60;2.20;;;10.70;99.90;;;;;;5054605;28;20475;-69
2022/02/09 12:00:18;;;;;;;5.13;3.07;;;10.70;99.90;;;;;;5054738;28;20458;-69
2022/02/09 12:08:53;;;;;;;3.10;2.80;;;10.60;99.90;;;;;;5055036;28;20871;-69
2022/02/09 12:11:57;;;;;;;3.10;2.43;;;10.50;99.90;;;;;;5055009;28;20482;-69
2022/02/09 12:14:55;;;;;;;3.93;2.67;;;10.50;99.90;;;;;;5054840;28;20466;-70
2022/02/09 12:17:33;;;;;;;3.97;2.90;;;10.50;99.90;;;;;;5056672;28;20479;-69
2022/02/09 12:20:09;;;;;;;3.10;2.90;;;10.50;99.90;;;;;;5056929;28;20439;-68
2022/02/09 12:22:45;;;;;;;3.20;2.60;;;10.50;99.90;;;;;;5059102;28;20493;-68
2022/02/09 12:25:12;;;;;;;5.57;3.73;;;10.50;99.90;;;;;;5074600;28;20461;-68
2022/02/09 12:27:39;;;;;;;4.00;3.13;;;10.40;99.90;;;;;;5074486;28;20466;-68
2022/02/09 12:30:10;;;;;;;4.17;3.50;;;10.40;99.90;;;;;;5074749;28;20462;-68
2022/02/09 12:32:38;;;;;;;6.23;4.60;;;10.40;99.90;;;;;;5076000;28;20811;-67
2022/02/09 12:35:07;;;;;;;8.97;3.53;;;10.40;99.90;;;;;;5076067;28;20465;-69
2022/02/09 12:37:35;;;;;;;3.73;3.43;;;10.40;99.90;;;;;;5074468;28;20485;-69
2022/02/09 12:40:05;;;;;;;5.30;3.17;;;10.20;99.90;;;;;;5074277;28;20938;-69
2022/02/09 12:42:34;;;;;;;3.30;2.87;;;10.10;99.90;;;;;;5074883;28;20837;-69
2022/02/09 12:45:04;;;;;;;4.33;3.33;;;9.80;99.90;;;;;;5075894;28;20511;-69
2022/02/09 12:47:34;;;;;;;4.83;4.30;;;9.60;99.90;;;;;;5075883;28;20471;-70
2022/02/09 12:50:03;;;;;;;7.00;4.97;;;9.40;99.90;;;;;;5078070;28;20454;-68
2022/02/09 12:52:30;;;;;;;5.97;5.37;;;9.20;99.90;;;;;;5077296;28;20523;-69
2022/02/09 12:55:13;;;;;;;6.53;5.93;;;9.10;99.90;;;;;;5077966;28;20458;-68
2022/02/09 12:57:43;;;;;;;6.50;5.80;;;9.10;99.90;;;;;;5075442;28;20510;-68
2022/02/09 13:00:22;;;;;;;8.03;6.17;;;9.20;99.90;;;;;;5075959;28;20458;-69
2022/02/09 13:02:51;;;;;;;6.53;5.93;;;9.20;99.90;;;;;;5076003;28;20462;-68
2022/02/09 13:05:18;;;;;;;8.50;6.30;;;9.30;99.90;;;;;;5076787;28;20458;-69
2022/02/09 13:07:53;;;;;;;7.43;6.10;;;9.40;99.90;;;;;;5078323;28;20484;-68
2022/02/09 13:10:27;;;;;;;4.73;4.23;;;9.50;99.90;;;;;;5082010;28;20449;-68
2022/02/09 13:12:57;;;;;;;5.17;4.50;;;9.60;99.90;;;;;;5080257;28;20970;-69
2022/02/09 13:15:30;;;;;;;5.67;4.60;;;9.60;99.90;;;;;;5079222;28;20462;-68
2022/02/09 13:18:28;;;;;;;6.10;5.03;;;9.70;99.90;;;;;;5078198;28;20447;-69
2022/02/09 13:21:41;;;;;;;6.13;4.80;;;9.80;99.90;;;;;;5077788;28;20447;-68
2022/02/09 13:24:23;;;;;;;4.83;4.27;;;9.90;99.90;;;;;;5076958;28;20480;-68
2022/02/09 14:12:23;;;;;;;3.33;3.00;;;10.30;99.90;;;;;;5133359;28;20524;-69
2022/02/09 14:53:30;;;;;;;3.87;3.50;;;10.00;99.90;;;;;;5133267;28;20439;-69
2022/02/09 14:56:05;;;;;;;4.73;4.33;;;9.90;99.90;;;;;;5133229;28;20467;-69
2022/02/09 14:58:34;;;;;;;3.60;3.30;;;10.00;99.90;;;;;;5133240;27;20486;-68
2022/02/09 15:01:06;;;;;;;3.40;2.90;;;10.00;99.90;;;;;;5133258;28;20542;-69
2022/02/09 15:09:05;;;;;;;8.00;3.50;;;9.90;99.90;;;;;;5133758;28;20451;-70
2022/02/09 15:11:36;;;;;;;4.20;3.67;;;9.90;99.90;;;;;;5135749;28;20543;-69
2022/02/09 15:14:15;;;;;;;4.03;3.60;;;9.90;99.90;;;;;;5135391;28;20488;-69
2022/02/09 15:16:53;;;;;;;6.10;4.07;;;9.90;99.90;;;;;;5135097;27;20533;-71
2022/02/09 15:19:28;;;;;;;5.50;3.90;;;9.80;99.90;;;;;;5134861;28;20880;-69
2022/02/09 15:24:39;;;;;;;6.47;5.53;;;9.80;99.90;;;;;;5134872;28;20438;-69
2022/02/09 15:27:06;;;;;;;4.57;4.17;;;9.70;99.90;;;;;;5133647;28;20428;-69
2022/02/09 15:29:37;;;;;;;4.00;3.70;;;9.70;99.90;;;;;;5135255;28;20452;-68
2022/02/09 15:32:11;;;;;;;3.20;2.90;;;9.80;99.90;;;;;;5137269;28;20435;-69
2022/02/09 15:34:42;;;;;;;3.87;3.57;;;9.80;99.90;;;;;;5133521;27;20471;-68
2022/02/09 15:37:15;;;;;;;2.80;2.47;;;9.80;99.90;;;;;;5132114;28;20493;-68
2022/02/09 15:39:45;;;;;;;2.50;2.30;;;9.80;99.90;;;;;;5132040;28;20826;-68
2022/02/09 15:42:34;;;;;;;3.17;2.83;;;9.80;99.90;;;;;;5132183;28;20824;-68
2022/02/09 15:56:30;;;;;;;3.40;3.10;;;9.70;99.90;;;;;;5122691;28;20467;-68
2022/02/09 16:09:53;;;;;;;4.13;3.77;;;9.60;99.90;;;;;;5118317;28;20424;-69
2022/02/09 16:23:36;;;;;;;5.20;4.80;;;9.60;99.90;;;;;;5117189;28;20526;-69
2022/02/09 16:26:18;;;;;;;5.27;4.40;;;9.50;99.90;;;;;;5117289;28;20482;-68
2022/02/09 16:45:41;;;;;;;4.17;3.80;;;9.60;99.90;;;;;;5092682;28;20433;-69
2022/02/09 16:48:09;;;;;;;3.70;3.40;;;9.60;99.90;;;;;;5092022;28;20434;-68
2022/02/09 16:50:39;;;;;;;3.80;3.50;;;9.60;99.90;;;;;;5091915;28;20918;-70
2022/02/09 16:53:13;;;;;;;4.37;4.07;;;9.70;99.90;;;;;;5092352;28;20462;-69
2022/02/09 16:56:20;;;;;;;4.83;4.43;;;9.60;99.90;;;;;;5092659;28;20460;-69
2022/02/09 17:20:54;;;;;;;5.93;4.80;;;9.40;99.90;;;;;;5091799;28;20424;-69
2022/02/09 17:23:21;;;;;;;4.83;4.33;;;9.40;99.90;;;;;;5091704;28;20461;-68
2022/02/09 17:25:47;;;;;;;4.37;4.00;;;9.40;99.90;;;;;;5091588;28;20902;-68
2022/02/09 17:28:17;;;;;;;5.33;4.83;;;9.50;99.90;;;;;;5091514;28;20457;-69
2022/02/09 17:31:01;;;;;;;7.60;4.43;;;9.50;99.90;;;;;;5091435;28;20860;-70
2022/02/09 17:33:43;;;;;;;4.67;4.17;;;9.50;99.90;;;;;;5091970;28;20539;-69
2022/02/09 17:36:14;;;;;;;4.60;4.20;;;9.50;99.90;;;;;;5091698;28;20575;-69
2022/02/09 17:38:48;;;;;;;4.97;4.40;;;9.50;99.90;;;;;;5090940;28;20521;-69
2022/02/09 17:57:46;;;;;;;3.70;3.40;;;9.70;99.90;;;;;;5077100;28;20446;-68
2022/02/09 18:00:16;;;;;;;3.83;3.03;;;9.70;99.90;;;;;;5077405;28;20473;-69
2022/02/09 18:02:44;;;;;;;6.63;4.10;;;9.80;99.90;;;;;;5077547;28;20482;-68
2022/02/09 18:05:18;;;;;;;4.80;4.40;;;9.70;99.90;;;;;;5077833;28;20810;-68
2022/02/09 18:07:49;;;;;;;4.90;3.53;;;9.70;99.90;;;;;;5077497;28;20519;-69
2022/02/09 18:10:24;;;;;;;4.10;3.80;;;9.80;99.90;;;;;;5077496;28;20457;-68
2022/02/09 18:13:22;;;;;;;4.60;4.23;;;9.80;99.90;;;;;;5077119;28;20753;-69
2022/02/09 18:27:42;;;;;;;5.40;4.90;;;9.80;99.90;;;;;;5078391;28;20431;-69
2022/02/09 18:30:09;;;;;;;5.13;4.63;;;9.80;99.90;;;;;;5076916;28;20451;-69
2022/02/09 18:44:03;;;;;;;5.57;4.80;;;9.80;99.90;;;;;;5096201;27;20542;-68
2022/02/09 18:46:39;;;;;;;6.00;5.30;;;9.70;99.90;;;;;;5097354;28;20441;-69
2022/02/09 18:57:56;;;;;;;7.37;6.67;;;9.80;99.90;;;;;;5092314;28;20563;-69
2022/02/09 19:03:02;;;;;;;6.90;5.83;;;9.80;99.90;;;;;;5095089;28;20552;-70
2022/02/09 19:05:33;;;;;;;7.70;6.90;;;9.80;99.90;;;;;;5092807;28;20511;-69
2022/02/09 19:08:21;;;;;;;7.43;6.47;;;9.80;99.90;;;;;;5092685;28;20438;-68
2022/02/09 19:16:42;;;;;;;7.50;6.33;;;9.80;99.90;;;;;;5092072;28;20891;-69
2022/02/09 19:19:30;;;;;;;8.40;6.50;;;9.70;99.90;;;;;;5093974;28;20519;-69
2022/02/09 19:30:14;;;;;;;9.30;7.30;;;9.70;99.90;;;;;;5090621;28;20441;-70
2022/02/09 19:42:02;;;;;;;8.57;6.90;;;9.80;99.90;;;;;;5092438;28;20429;-70
2022/02/09 19:47:03;;;;;;;8.47;7.33;;;9.80;99.90;;;;;;5092533;28;20432;-70
2022/02/09 19:49:45;;;;;;;7.07;6.47;;;9.80;99.90;;;;;;5092456;28;20434;-73
2022/02/09 19:52:18;;;;;;;10.07;7.20;;;9.80;99.90;;;;;;5091433;28;20533;-71
2022/02/09 19:55:01;;;;;;;11.03;6.33;;;9.80;99.90;;;;;;5081890;28;20439;-68
2022/02/09 19:57:28;;;;;;;9.07;7.13;;;9.80;99.90;;;;;;5079405;28;20464;-69
2022/02/09 19:59:57;;;;;;;7.63;6.73;;;9.90;99.90;;;;;;5078275;28;20450;-69
2022/02/09 20:02:25;;;;;;;7.67;6.90;;;9.80;99.90;;;;;;5077900;28;20478;-70
2022/02/09 20:04:55;;;;;;;8.07;7.17;;;9.80;99.90;;;;;;5078474;28;20454;-71
2022/02/09 20:07:23;;;;;;;8.57;6.60;;;9.90;99.90;;;;;;5078302;28;20501;-70
2022/02/09 20:09:49;;;;;;;7.30;6.60;;;9.90;99.90;;;;;;5077820;28;20469;-71
2022/02/09 20:12:16;;;;;;;7.20;6.50;;;9.90;99.90;;;;;;5078698;28;20532;-69
2022/02/09 20:14:46;;;;;;;7.60;6.87;;;9.80;99.90;;;;;;5078122;28;20466;-71
2022/02/09 20:17:13;;;;;;;6.40;5.80;;;9.80;99.90;;;;;;5077720;28;20458;-71
2022/02/09 20:19:42;;;;;;;7.27;6.57;;;9.90;99.90;;;;;;5077402;28;20537;-72
2022/02/09 20:22:10;;;;;;;6.87;6.20;;;9.90;99.90;;;;;;5078499;28;20926;-70
2022/02/09 20:24:37;;;;;;;7.40;6.63;;;9.90;99.90;;;;;;5077793;28;20477;-70
2022/02/09 20:27:06;;;;;;;6.50;5.90;;;9.80;99.90;;;;;;5077246;28;20469;-71
2022/02/09 20:29:35;;;;;;;7.03;6.30;;;9.80;99.90;;;;;;5076892;28;20934;-70
2022/02/09 20:32:13;;;;;;;7.17;6.43;;;9.80;99.90;;;;;;5076751;28;20967;-71
2022/02/09 20:34:48;;;;;;;7.50;6.80;;;9.80;99.90;;;;;;5077815;28;20443;-70
2022/02/09 20:37:17;;;;;;;7.80;6.87;;;9.80;99.90;;;;;;5077830;28;20438;-71
2022/02/09 20:39:54;;;;;;;7.13;6.37;;;9.80;99.90;;;;;;5076785;28;20522;-70
2022/02/09 20:42:22;;;;;;;8.37;7.47;;;9.80;99.90;;;;;;5076422;28;20497;-69
2022/02/09 20:44:54;;;;;;;7.63;6.83;;;9.80;99.90;;;;;;5076730;28;20490;-69
2022/02/09 20:47:21;;;;;;;11.47;8.33;;;9.80;99.90;;;;;;5076946;28;20821;-68
2022/02/09 20:49:48;;;;;;;9.00;8.10;;;9.80;99.90;;;;;;5076746;28;20461;-69
2022/02/09 20:52:16;;;;;;;10.67;9.03;;;9.80;99.90;;;;;;5076504;28;20458;-69
2022/02/09 20:54:43;;;;;;;8.87;7.97;;;9.80;99.90;;;;;;5075995;28;20470;-69
2022/02/09 20:57:10;;;;;;;10.10;7.60;;;9.80;99.90;;;;;;5076268;28;20523;-69
2022/02/09 20:59:42;;;;;;;12.07;8.20;;;9.80;99.90;;;;;;5076094;28;20490;-68
2022/02/09 21:02:30;;;;;;;9.23;8.30;;;9.70;99.90;;;;;;5076337;28;20524;-69
2022/02/09 21:05:09;;;;;;;8.97;7.67;;;9.70;99.90;;;;;;5075753;28;20766;-69
2022/02/09 21:07:48;;;;;;;8.87;7.40;;;9.80;99.90;;;;;;5075648;28;20469;-69
2022/02/09 21:10:30;;;;;;;8.50;7.20;;;9.80;99.90;;;;;;5076112;28;20442;-70
2022/02/09 21:13:01;;;;;;;8.10;7.30;;;9.80;99.90;;;;;;5076488;28;20871;-69
2022/02/09 21:15:41;;;;;;;10.43;7.70;;;9.80;99.90;;;;;;5076844;28;20439;-68
2022/02/09 21:21:14;;;;;;;9.63;8.03;;;9.80;99.90;;;;;;5036134;28;20919;-69
2022/02/09 21:24:17;;;;;;;9.03;8.13;;;9.80;99.90;;;;;;5076754;28;20891;-68
2022/02/09 21:27:13;;;;;;;9.53;8.30;;;9.80;99.90;;;;;;5076501;28;20477;-69
2022/02/09 21:46:44;;;;;;;9.63;8.60;;;9.70;99.90;;;;;;5075958;28;20555;-68
2022/02/09 21:49:45;;;;;;;9.90;8.90;;;9.70;99.90;;;;;;5075121;28;20451;-69
2022/02/09 21:54:54;;;;;;;9.17;8.00;;;9.70;99.90;;;;;;5076012;28;20515;-68
2022/02/09 21:57:34;;;;;;;9.13;8.23;;;9.70;99.90;;;;;;5075714;28;20435;-68
2022/02/09 22:00:20;;;;;;;8.10;7.10;;;9.70;99.90;;;;;;5075991;28;20509;-69
2022/02/09 22:16:51;;;;;;;13.53;10.10;;;9.60;99.90;;;;;;4994133;28;20786;-69
2022/02/09 22:19:44;;;;;;;13.00;10.60;;;9.60;99.90;;;;;;5061804;28;20532;-69
2022/02/09 22:22:38;;;;;;;17.03;11.70;;;9.60;99.90;;;;;;5075083;28;20434;-68
2022/02/09 22:27:53;;;;;;;13.50;10.53;;;9.60;99.90;;;;;;5075618;28;20418;-67
2022/02/09 22:47:36;;;;;;;15.13;12.23;;;9.60;99.90;;;;;;5027443;28;20503;-68